Time;durP1;ratioP1;P1;durP2;ratioP2;P2;SDS_P1;SDS_P2;PMS_P1;PMS_P2;Temp;Humidity;BMP_temperature;BMP_pressure;BME280_temperature;BME280_humidity;BME280_pressure;Samples;Min_cycle;Max_cycle;Signal;HPM_P1;HPM_P2
2023/09/17 00:01:43;;;;;;;1.38;0.90;;;18.30;65.80;;;;;;5071558;28;20040;-71
2023/09/17 00:04:09;;;;;;;0.55;0.43;;;18.30;66.00;;;;;;5072146;28;20468;-71
2023/09/17 00:06:35;;;;;;;;;;;18.30;66.40;;;;;;5054878;28;20515;-71
2023/09/17 00:09:03;;;;;;;0.32;0.30;;;18.30;66.10;;;;;;5070888;28;19916;-71
2023/09/17 00:11:29;;;;;;;2.42;2.03;;;18.30;66.10;;;;;;5070040;28;20056;-71
2023/09/17 00:13:55;;;;;;;0.65;0.45;;;18.30;66.20;;;;;;5071014;28;20444;-71
2023/09/17 00:16:21;;;;;;;;;;;18.30;65.90;;;;;;5072792;28;20047;-71
2023/09/17 00:18:47;;;;;;;1.52;1.13;;;18.20;65.80;;;;;;5072034;28;20319;-71
2023/09/17 00:21:13;;;;;;;1.65;1.10;;;18.20;65.80;;;;;;5070934;28;20071;-71
2023/09/17 00:23:39;;;;;;;1.02;0.60;;;18.10;66.10;;;;;;5071846;28;20396;-71
2023/09/17 00:26:06;;;;;;;0.60;0.30;;;18.10;66.40;;;;;;5072065;28;20063;-71
2023/09/17 00:28:32;;;;;;;1.55;1.15;;;18.10;66.50;;;;;;5070659;28;20055;-71
2023/09/17 00:30:58;;;;;;;0.70;0.40;;;18.10;66.80;;;;;;5071235;28;20029;-71
2023/09/17 00:33:24;;;;;;;1.30;0.88;;;18.10;66.90;;;;;;5072694;28;20051;-71
2023/09/17 00:35:50;;;;;;;6.53;1.75;;;18.10;66.90;;;;;;5072488;28;20093;-71
2023/09/17 00:38:16;;;;;;;2.40;1.23;;;18.10;67.00;;;;;;5072827;28;20028;-71
2023/09/17 00:40:42;;;;;;;1.00;0.50;;;18.00;67.10;;;;;;5070658;28;20048;-70
2023/09/17 00:43:09;;;;;;;1.88;1.35;;;18.00;67.10;;;;;;5072746;28;20431;-71
2023/09/17 00:45:35;;;;;;;;;;;18.00;67.00;;;;;;5071709;28;20033;-71
2023/09/17 00:48:03;;;;;;;1.48;0.43;;;17.90;66.00;;;;;;5071562;28;19920;-71
2023/09/17 00:50:31;;;;;;;0.60;0.47;;;17.80;66.20;;;;;;5070474;28;20044;-71
2023/09/17 00:52:58;;;;;;;0.73;0.60;;;17.90;66.40;;;;;;5054922;28;20493;-71
2023/09/17 00:55:25;;;;;;;1.08;0.60;;;17.80;66.40;;;;;;5070921;28;20041;-71
2023/09/17 00:57:52;;;;;;;0.65;0.40;;;17.80;66.60;;;;;;5071515;28;20033;-71
2023/09/17 01:00:21;;;;;;;0.70;0.55;;;17.80;66.70;;;;;;5071221;28;20135;-71
2023/09/17 01:02:47;;;;;;;0.90;0.47;;;17.60;66.20;;;;;;5071364;28;20029;-71
2023/09/17 01:05:13;;;;;;;0.90;0.65;;;17.60;66.40;;;;;;5072293;28;20056;-71
2023/09/17 01:07:39;;;;;;;0.50;0.30;;;17.60;66.50;;;;;;5071730;28;20025;-71
2023/09/17 01:10:06;;;;;;;;;;;17.50;66.30;;;;;;5071210;28;20099;-71
2023/09/17 01:12:32;;;;;;;0.63;0.60;;;17.40;66.10;;;;;;5071225;28;20376;-71
2023/09/17 01:14:58;;;;;;;;;;;17.40;66.80;;;;;;5072975;28;20044;-71
2023/09/17 01:17:27;;;;;;;1.15;1.05;;;17.30;65.90;;;;;;5070738;28;19959;-71
2023/09/17 01:19:55;;;;;;;0.68;0.50;;;17.30;66.10;;;;;;5072415;28;20037;-71
2023/09/17 01:22:44;;;;;;;0.73;0.50;;;17.10;66.10;;;;;;5070248;28;20043;-72
2023/09/17 01:25:42;;;;;;;1.73;1.05;;;17.10;66.50;;;;;;5070485;28;20036;-71
2023/09/17 01:28:27;;;;;;;1.88;1.25;;;17.10;66.20;;;;;;5071138;28;20449;-70
2023/09/17 01:30:53;;;;;;;0.73;0.47;;;17.10;66.10;;;;;;5071639;28;20036;-70
2023/09/17 01:33:19;;;;;;;1.65;1.00;;;17.00;66.20;;;;;;5071047;28;20482;-71
2023/09/17 01:36:08;;;;;;;0.52;0.35;;;17.00;66.40;;;;;;5053706;28;20040;-70
2023/09/17 01:38:46;;;;;;;0.80;0.52;;;17.00;66.40;;;;;;5071243;28;20132;-70
2023/09/17 01:41:15;;;;;;;1.10;0.65;;;17.00;66.70;;;;;;5069905;28;20071;-71
2023/09/17 01:43:44;;;;;;;1.17;0.57;;;17.00;66.90;;;;;;5070222;28;20040;-70
2023/09/17 01:46:10;;;;;;;0.20;0.20;;;17.00;67.10;;;;;;5070195;28;20490;-70
2023/09/17 01:48:56;;;;;;;;;;;17.10;67.20;;;;;;5074430;28;20500;-70
2023/09/17 01:51:22;;;;;;;2.05;1.85;;;17.00;66.90;;;;;;5074260;28;19924;-71
2023/09/17 01:53:48;;;;;;;1.05;0.70;;;17.00;67.20;;;;;;5074888;28;20078;-70
2023/09/17 01:56:14;;;;;;;0.57;0.43;;;17.00;67.50;;;;;;5073581;28;20101;-71
2023/09/17 01:58:41;;;;;;;1.27;0.50;;;17.00;67.20;;;;;;5074725;28;20048;-70
2023/09/17 02:01:07;;;;;;;3.00;0.90;;;17.00;67.20;;;;;;5072284;28;20040;-71
2023/09/17 02:03:33;;;;;;;1.55;0.73;;;17.00;67.30;;;;;;5073187;28;20040;-70
2023/09/17 02:05:59;;;;;;;0.45;0.32;;;16.90;67.20;;;;;;5074618;28;20412;-70
2023/09/17 02:08:25;;;;;;;;;;;16.90;67.20;;;;;;5057103;28;20039;-70
2023/09/17 02:10:51;;;;;;;3.10;0.67;;;16.80;67.10;;;;;;5073751;28;19928;-70
2023/09/17 02:13:17;;;;;;;1.50;0.55;;;16.70;67.20;;;;;;5074344;28;20024;-70
2023/09/17 02:15:44;;;;;;;1.85;1.65;;;16.60;67.20;;;;;;5072785;28;20469;-70
2023/09/17 02:18:11;;;;;;;0.95;0.77;;;16.60;67.70;;;;;;5073068;28;20040;-70
2023/09/17 02:20:55;;;;;;;2.42;1.23;;;16.60;67.70;;;;;;5054834;28;20040;-70
2023/09/17 02:23:22;;;;;;;3.17;1.77;;;16.70;67.80;;;;;;5074266;28;20058;-71
2023/09/17 02:25:49;;;;;;;0.65;0.52;;;16.60;67.80;;;;;;5072391;28;20089;-70
2023/09/17 02:28:15;;;;;;;0.43;0.40;;;16.60;68.00;;;;;;5074236;28;20029;-71
2023/09/17 02:30:41;;;;;;;0.40;0.40;;;16.60;67.80;;;;;;5071548;28;20493;-70
2023/09/17 02:33:10;;;;;;;0.85;0.60;;;16.60;67.30;;;;;;5074436;28;20035;-71
2023/09/17 02:35:37;;;;;;;1.35;1.00;;;16.50;67.50;;;;;;5074263;28;20043;-70
2023/09/17 02:38:04;;;;;;;0.50;0.47;;;16.40;67.30;;;;;;5073195;28;20051;-70
2023/09/17 02:40:30;;;;;;;2.85;1.17;;;16.40;67.30;;;;;;5073092;28;20087;-71
2023/09/17 02:42:56;;;;;;;0.43;0.40;;;16.40;67.50;;;;;;5074361;28;20032;-70
2023/09/17 02:45:22;;;;;;;0.98;0.75;;;16.40;67.60;;;;;;5073674;28;20052;-70
2023/09/17 02:47:50;;;;;;;1.40;1.02;;;16.40;67.50;;;;;;5072798;28;20028;-70
2023/09/17 02:50:16;;;;;;;1.45;0.77;;;16.40;67.50;;;;;;5071678;28;20098;-70
2023/09/17 02:52:42;;;;;;;;;;;16.50;67.60;;;;;;5073207;28;20035;-70
2023/09/17 02:55:08;;;;;;;1.60;0.73;;;16.40;67.60;;;;;;5072316;28;20003;-70
2023/09/17 02:57:34;;;;;;;1.08;0.60;;;16.40;67.10;;;;;;5072612;28;20374;-70
2023/09/17 03:00:00;;;;;;;;;;;16.50;67.90;;;;;;5055979;28;20412;-70
2023/09/17 03:02:26;;;;;;;1.00;0.30;;;16.40;67.70;;;;;;5072742;28;19921;-70
2023/09/17 03:04:52;;;;;;;0.55;0.55;;;16.50;68.00;;;;;;5073972;28;20105;-71
2023/09/17 03:07:19;;;;;;;2.35;0.65;;;16.50;68.30;;;;;;5073176;28;20537;-70
2023/09/17 03:09:45;;;;;;;0.30;0.30;;;16.50;68.50;;;;;;5072295;28;20075;-70
2023/09/17 03:12:11;;;;;;;0.30;0.30;;;16.50;68.60;;;;;;5071328;28;20040;-70
2023/09/17 03:14:39;;;;;;;0.82;0.35;;;16.50;68.60;;;;;;5072181;28;20041;-70
2023/09/17 03:17:05;;;;;;;0.82;0.47;;;16.50;69.60;;;;;;5071819;28;20040;-71
2023/09/17 03:19:31;;;;;;;;;;;16.40;68.80;;;;;;5073692;28;20413;-70
2023/09/17 03:21:57;;;;;;;1.45;0.57;;;16.40;68.60;;;;;;5071301;28;19916;-71
2023/09/17 03:24:24;;;;;;;0.98;0.50;;;16.40;68.90;;;;;;5073235;28;20376;-70
2023/09/17 03:26:51;;;;;;;;;;;16.40;69.10;;;;;;5073459;28;20029;-70
2023/09/17 03:29:17;;;;;;;0.65;0.55;;;16.30;68.50;;;;;;5073188;28;19920;-71
2023/09/17 03:31:45;;;;;;;0.75;0.45;;;16.40;69.20;;;;;;5071175;28;20083;-70
2023/09/17 03:34:11;;;;;;;0.93;0.85;;;16.30;69.00;;;;;;5073206;28;20029;-70
2023/09/17 03:36:37;;;;;;;0.25;0.25;;;16.30;68.90;;;;;;5054696;28;20033;-70
2023/09/17 03:41:48;;;;;;;5.18;1.58;;;16.30;69.00;;;;;;5071208;28;20042;-70
2023/09/17 03:44:14;;;;;;;1.65;1.55;;;16.30;69.20;;;;;;5071596;28;20048;-70
2023/09/17 03:46:40;;;;;;;1.52;0.50;;;16.30;69.50;;;;;;5071221;28;20030;-71
2023/09/17 03:49:06;;;;;;;2.53;1.05;;;16.40;69.90;;;;;;5054693;28;20441;-70
2023/09/17 03:51:33;;;;;;;1.05;0.55;;;16.40;70.10;;;;;;5070537;28;20099;-70
2023/09/17 03:54:00;;;;;;;2.85;1.15;;;16.40;70.60;;;;;;5072479;28;20486;-70
2023/09/17 03:56:26;;;;;;;1.48;0.30;;;16.30;69.90;;;;;;5070920;28;20064;-70
2023/09/17 03:58:53;;;;;;;;;;;16.30;70.40;;;;;;5071895;28;20090;-70
2023/09/17 04:01:20;;;;;;;0.97;0.43;;;16.30;70.40;;;;;;5071314;28;19931;-70
2023/09/17 04:03:46;;;;;;;1.35;0.88;;;16.20;70.70;;;;;;5054551;28;20466;-70
2023/09/17 04:06:12;;;;;;;1.55;0.52;;;16.20;71.00;;;;;;5070983;28;20033;-71
2023/09/17 04:08:38;;;;;;;0.98;0.43;;;16.20;70.90;;;;;;5071037;28;20111;-70
2023/09/17 04:11:04;;;;;;;2.45;0.95;;;16.20;71.20;;;;;;5071343;28;20032;-71
2023/09/17 04:13:31;;;;;;;0.60;0.25;;;16.20;71.10;;;;;;5071040;28;20077;-70
2023/09/17 04:15:57;;;;;;;1.90;0.90;;;16.20;71.10;;;;;;5070577;28;20043;-70
2023/09/17 04:18:23;;;;;;;0.38;0.30;;;16.20;71.00;;;;;;5072312;28;20393;-70
2023/09/17 04:20:49;;;;;;;0.47;0.43;;;16.20;70.90;;;;;;5071606;28;20048;-70
2023/09/17 04:23:16;;;;;;;1.08;0.52;;;16.20;70.80;;;;;;5072185;28;20029;-70
2023/09/17 04:25:42;;;;;;;;;;;16.10;70.70;;;;;;5070985;28;20033;-70
2023/09/17 04:28:08;;;;;;;1.75;1.00;;;16.10;70.70;;;;;;5071145;28;19978;-70
2023/09/17 04:30:34;;;;;;;;;;;16.10;70.90;;;;;;5071935;28;20040;-70
2023/09/17 04:33:01;;;;;;;0.30;0.30;;;16.00;70.90;;;;;;5072205;28;19912;-70
2023/09/17 04:35:27;;;;;;;0.55;0.40;;;16.00;71.20;;;;;;5070419;28;20276;-70
2023/09/17 04:37:53;;;;;;;;;;;16.00;71.30;;;;;;5054603;28;20067;-70
2023/09/17 04:40:24;;;;;;;0.25;0.25;;;16.10;71.30;;;;;;5069631;28;19916;-70
2023/09/17 04:42:52;;;;;;;1.05;0.90;;;16.20;71.20;;;;;;5070914;28;20071;-70
2023/09/17 04:45:38;;;;;;;0.73;0.68;;;16.20;71.40;;;;;;5071390;28;20040;-70
2023/09/17 04:48:06;;;;;;;0.88;0.60;;;16.20;71.60;;;;;;5070612;28;20108;-70
2023/09/17 04:50:33;;;;;;;0.68;0.50;;;16.30;71.60;;;;;;5069545;28;20041;-70
2023/09/17 04:53:00;;;;;;;1.05;0.70;;;16.30;71.70;;;;;;5072055;28;20559;-70
2023/09/17 04:55:26;;;;;;;1.23;0.82;;;16.30;72.20;;;;;;5069954;28;20055;-70
2023/09/17 04:57:52;;;;;;;3.42;0.93;;;16.40;72.50;;;;;;5070699;28;20037;-70
2023/09/17 05:00:20;;;;;;;0.45;0.45;;;16.40;73.50;;;;;;5069347;28;20040;-70
2023/09/17 05:02:48;;;;;;;0.20;0.20;;;16.40;72.40;;;;;;5053998;28;20021;-70
2023/09/17 05:05:17;;;;;;;0.57;0.47;;;16.40;72.90;;;;;;5070160;28;20037;-70
2023/09/17 05:07:43;;;;;;;0.68;0.30;;;16.50;73.30;;;;;;5070533;28;20362;-70
2023/09/17 05:10:09;;;;;;;0.20;0.15;;;16.50;73.50;;;;;;5070853;28;20041;-70
2023/09/17 05:12:35;;;;;;;0.82;0.50;;;16.40;73.60;;;;;;5070572;28;20060;-70
2023/09/17 05:15:02;;;;;;;0.38;0.30;;;16.40;73.90;;;;;;5071707;28;20056;-70
2023/09/17 05:17:29;;;;;;;0.75;0.60;;;16.50;73.90;;;;;;5070059;28;20043;-70
2023/09/17 05:19:55;;;;;;;1.40;0.55;;;16.60;73.40;;;;;;5071543;28;20051;-70
2023/09/17 05:22:21;;;;;;;0.75;0.50;;;16.70;73.50;;;;;;5071733;28;20040;-70
2023/09/17 05:24:47;;;;;;;0.90;0.57;;;16.60;73.40;;;;;;5057388;28;20037;-70
2023/09/17 05:27:13;;;;;;;0.60;0.40;;;16.70;73.70;;;;;;5073906;28;20397;-70
2023/09/17 05:29:41;;;;;;;1.55;0.70;;;16.70;73.80;;;;;;5075652;28;20048;-69
2023/09/17 05:32:07;;;;;;;0.10;0.10;;;16.80;73.80;;;;;;5073361;28;20041;-70
2023/09/17 05:34:33;;;;;;;;;;;16.80;73.60;;;;;;5076154;28;20414;-70
2023/09/17 05:36:59;;;;;;;0.80;0.35;;;16.90;73.50;;;;;;5074899;28;19931;-70
2023/09/17 05:39:25;;;;;;;0.73;0.45;;;16.80;74.20;;;;;;5056957;28;20474;-70
2023/09/17 05:41:51;;;;;;;0.28;0.25;;;16.90;73.30;;;;;;5074443;28;20276;-70
2023/09/17 05:44:17;;;;;;;0.47;0.30;;;16.90;73.30;;;;;;5073578;28;20021;-70
2023/09/17 05:46:43;;;;;;;0.20;0.20;;;17.00;73.40;;;;;;5073639;28;20041;-70
2023/09/17 05:49:09;;;;;;;1.27;1.08;;;17.10;73.40;;;;;;5073772;28;20036;-70
2023/09/17 05:51:35;;;;;;;0.93;0.30;;;17.10;73.40;;;;;;5074067;28;20405;-70
2023/09/17 05:54:01;;;;;;;0.25;0.25;;;17.10;73.50;;;;;;5074916;28;20078;-69
2023/09/17 05:56:28;;;;;;;1.38;0.70;;;17.10;73.70;;;;;;5074876;28;20052;-70
2023/09/17 05:58:54;;;;;;;0.68;0.50;;;17.10;74.00;;;;;;5073748;28;20033;-70
2023/09/17 06:01:20;;;;;;;0.57;0.38;;;17.20;74.00;;;;;;5072391;28;20493;-70
2023/09/17 06:03:46;;;;;;;0.77;0.50;;;17.20;73.90;;;;;;5073648;28;20029;-70
2023/09/17 06:06:12;;;;;;;0.30;0.30;;;17.30;73.70;;;;;;5074817;28;20040;-70
2023/09/17 06:08:38;;;;;;;1.15;1.05;;;17.40;73.60;;;;;;5074004;28;20036;-70
2023/09/17 06:11:04;;;;;;;1.30;1.00;;;17.50;73.50;;;;;;5074097;28;20040;-70
2023/09/17 06:13:30;;;;;;;1.88;1.13;;;17.60;73.10;;;;;;5073319;28;20032;-69
2023/09/17 06:15:56;;;;;;;;;;;17.60;72.80;;;;;;5075102;28;20082;-70
2023/09/17 06:18:22;;;;;;;1.92;0.80;;;17.70;72.90;;;;;;5074603;28;20292;-70
2023/09/17 06:20:48;;;;;;;0.90;0.68;;;17.70;73.00;;;;;;5073649;28;20044;-70
2023/09/17 06:23:14;;;;;;;1.77;1.35;;;17.80;72.90;;;;;;5073149;28;20519;-70
2023/09/17 06:25:40;;;;;;;0.73;0.40;;;17.90;72.70;;;;;;5073143;28;20032;-70
2023/09/17 06:28:06;;;;;;;0.70;0.47;;;18.00;72.50;;;;;;5073339;28;20045;-70
2023/09/17 06:30:32;;;;;;;;;;;18.10;72.20;;;;;;5072606;28;20045;-70
2023/09/17 06:32:58;;;;;;;0.55;0.30;;;18.20;71.70;;;;;;5073920;28;20387;-70
2023/09/17 06:35:25;;;;;;;0.52;0.35;;;18.30;71.40;;;;;;5072428;28;20043;-70
2023/09/17 06:37:50;;;;;;;;;;;18.30;71.60;;;;;;5073615;28;20040;-70
2023/09/17 06:40:17;;;;;;;0.75;0.38;;;18.40;71.70;;;;;;5071745;28;19926;-70
2023/09/17 06:42:43;;;;;;;0.47;0.30;;;18.50;71.60;;;;;;5074220;28;20033;-71
2023/09/17 06:45:10;;;;;;;0.35;0.32;;;18.60;71.50;;;;;;5073879;28;20041;-71
2023/09/17 06:47:36;;;;;;;1.25;0.98;;;18.80;71.00;;;;;;5074138;28;20039;-70
2023/09/17 06:50:03;;;;;;;0.77;0.40;;;18.90;70.70;;;;;;5072575;28;20043;-70
2023/09/17 06:52:29;;;;;;;0.65;0.50;;;18.90;69.70;;;;;;5072143;28;20417;-70
2023/09/17 06:54:55;;;;;;;0.40;0.22;;;19.00;70.30;;;;;;5074055;28;20037;-70
2023/09/17 06:57:21;;;;;;;0.30;0.17;;;19.10;70.20;;;;;;5073550;28;20045;-70
2023/09/17 06:59:47;;;;;;;1.90;0.70;;;19.20;69.70;;;;;;5073417;28;20072;-70
2023/09/17 07:02:13;;;;;;;1.17;0.90;;;19.30;69.40;;;;;;5072984;28;20106;-70
2023/09/17 07:04:39;;;;;;;0.43;0.43;;;19.50;68.90;;;;;;5073592;28;20473;-70
2023/09/17 07:07:05;;;;;;;1.25;0.57;;;19.60;68.70;;;;;;5073162;28;20040;-70
2023/09/17 07:09:32;;;;;;;0.93;0.75;;;19.80;68.70;;;;;;5073738;28;20044;-70
2023/09/17 07:11:58;;;;;;;0.77;0.60;;;19.90;68.10;;;;;;5072725;28;20040;-70
2023/09/17 07:14:24;;;;;;;2.45;0.90;;;20.00;67.90;;;;;;5073414;28;20036;-70
2023/09/17 07:16:50;;;;;;;0.80;0.55;;;20.20;67.60;;;;;;5072030;28;20029;-70
2023/09/17 07:19:16;;;;;;;0.95;0.60;;;20.30;67.30;;;;;;5072117;28;20378;-69
2023/09/17 07:21:42;;;;;;;1.40;1.27;;;20.40;67.10;;;;;;5071309;28;20075;-70
2023/09/17 07:24:09;;;;;;;0.88;0.50;;;20.50;66.70;;;;;;5073158;28;20029;-70
2023/09/17 07:26:35;;;;;;;1.15;0.65;;;20.80;66.40;;;;;;5071475;28;20501;-70
2023/09/17 07:29:03;;;;;;;1.23;1.02;;;21.00;65.80;;;;;;5072910;28;20052;-70
2023/09/17 07:31:30;;;;;;;1.40;0.85;;;21.10;65.60;;;;;;5071135;28;20047;-70
2023/09/17 07:33:56;;;;;;;0.57;0.30;;;21.60;63.80;;;;;;5071701;28;20037;-70
2023/09/17 07:36:21;;;;;;;;;;;22.40;63.20;;;;;;5072202;28;20085;-70
2023/09/17 07:38:47;;;;;;;1.25;0.93;;;23.00;63.10;;;;;;5072928;28;20381;-70
2023/09/17 07:41:14;;;;;;;;;;;23.80;60.30;;;;;;5072307;28;20063;-71
2023/09/17 07:43:41;;;;;;;0.90;0.47;;;24.40;59.30;;;;;;5071122;28;20451;-70
2023/09/17 07:46:11;;;;;;;0.73;0.60;;;25.00;56.30;;;;;;5072543;28;20431;-71
2023/09/17 07:48:37;;;;;;;2.35;1.20;;;25.80;54.00;;;;;;5073026;28;20465;-71
2023/09/17 07:51:04;;;;;;;;;;;26.40;52.50;;;;;;5072232;28;20033;-71
2023/09/17 07:53:30;;;;;;;1.27;0.95;;;27.00;51.40;;;;;;5068143;28;19923;-71
2023/09/17 07:55:56;;;;;;;0.50;0.50;;;27.60;48.80;;;;;;5068031;28;20044;-71
2023/09/17 07:58:22;;;;;;;0.40;0.40;;;28.10;46.30;;;;;;5051547;28;20033;-71
2023/09/17 08:00:48;;;;;;;0.60;0.50;;;28.60;45.00;;;;;;5052202;28;20094;-70
2023/09/17 08:03:33;;;;;;;0.63;0.47;;;29.30;42.70;;;;;;5052446;28;20032;-72
2023/09/17 08:06:00;;;;;;;0.93;0.68;;;30.10;41.60;;;;;;5052733;28;20025;-72
2023/09/17 08:08:26;;;;;;;1.35;0.75;;;30.70;40.20;;;;;;5034636;28;20150;-72
2023/09/17 08:10:52;;;;;;;0.55;0.55;;;31.30;39.50;;;;;;5051748;28;20091;-72
2023/09/17 08:13:19;;;;;;;0.65;0.50;;;31.80;38.20;;;;;;5061999;28;20029;-72
2023/09/17 08:15:50;;;;;;;0.35;0.35;;;31.90;34.80;;;;;;5072212;28;20032;-72
2023/09/17 08:18:17;;;;;;;0.93;0.63;;;32.40;35.70;;;;;;5072450;28;20424;-72
2023/09/17 08:20:43;;;;;;;1.40;1.23;;;33.10;34.90;;;;;;5070018;28;20104;-72
2023/09/17 08:23:09;;;;;;;1.23;0.93;;;33.50;33.00;;;;;;5053981;28;20028;-72
2023/09/17 08:25:35;;;;;;;0.65;0.50;;;33.80;32.90;;;;;;5071884;28;20033;-72
2023/09/17 08:28:02;;;;;;;0.95;0.60;;;34.00;31.40;;;;;;5070864;28;20475;-72
2023/09/17 08:30:29;;;;;;;0.43;0.40;;;34.30;31.00;;;;;;5071089;28;20044;-72
2023/09/17 08:32:57;;;;;;;0.40;0.40;;;34.70;30.70;;;;;;5054196;28;20021;-72
2023/09/17 08:35:24;;;;;;;1.67;1.30;;;35.30;30.40;;;;;;5071600;28;20036;-72
2023/09/17 08:37:50;;;;;;;0.88;0.85;;;36.00;29.60;;;;;;5071783;28;20143;-72
2023/09/17 08:43:04;;;;;;;0.43;0.40;;;37.10;27.50;;;;;;5069331;28;20067;-72
2023/09/17 08:45:31;;;;;;;0.70;0.70;;;37.70;25.80;;;;;;5069611;28;20056;-72
2023/09/17 08:47:58;;;;;;;1.50;0.88;;;38.00;26.40;;;;;;5070221;28;20031;-72
2023/09/17 08:50:25;;;;;;;1.08;0.50;;;38.70;25.50;;;;;;5069432;28;20056;-73
2023/09/17 08:53:12;;;;;;;0.82;0.80;;;39.30;25.20;;;;;;5070233;28;20477;-73
2023/09/17 08:55:38;;;;;;;1.02;0.85;;;39.90;23.50;;;;;;5069049;28;20500;-73
2023/09/17 08:58:27;;;;;;;0.73;0.55;;;40.40;23.60;;;;;;5068265;28;20043;-72
2023/09/17 09:00:58;;;;;;;1.27;0.98;;;40.40;23.00;;;;;;5064725;28;20108;-73
2023/09/17 09:03:27;;;;;;;3.72;1.92;;;40.80;22.50;;;;;;5070194;28;20047;-73
2023/09/17 09:05:55;;;;;;;1.52;1.20;;;41.40;22.30;;;;;;5068969;28;20051;-73
2023/09/17 09:08:23;;;;;;;1.00;0.70;;;42.00;21.80;;;;;;5070208;28;20674;-73
2023/09/17 09:10:50;;;;;;;0.80;0.80;;;42.40;21.10;;;;;;5069522;28;20131;-73
2023/09/17 09:13:18;;;;;;;1.30;1.20;;;42.80;20.00;;;;;;5069276;28;20029;-73
2023/09/17 09:15:46;;;;;;;1.30;0.90;;;42.70;19.90;;;;;;5068711;28;20048;-72
2023/09/17 09:18:12;;;;;;;0.50;0.50;;;42.80;19.30;;;;;;5071279;28;20028;-72
2023/09/17 09:20:39;;;;;;;1.13;0.77;;;42.80;19.50;;;;;;5070222;28;20028;-73
2023/09/17 09:23:06;;;;;;;3.38;1.52;;;42.80;19.40;;;;;;5069675;28;20021;-73
2023/09/17 09:25:32;;;;;;;0.98;0.88;;;43.20;19.70;;;;;;5053059;28;20072;-73
2023/09/17 09:28:00;;;;;;;0.80;0.73;;;43.80;19.00;;;;;;5066702;28;20302;-73
2023/09/17 09:30:27;;;;;;;0.85;0.80;;;44.30;18.10;;;;;;5070190;28;20490;-73
2023/09/17 09:32:54;;;;;;;1.38;1.20;;;44.80;17.70;;;;;;5068288;28;20028;-72
2023/09/17 09:35:22;;;;;;;1.30;1.20;;;45.10;17.10;;;;;;5062895;28;20035;-73
2023/09/17 09:37:49;;;;;;;1.45;1.17;;;45.20;17.00;;;;;;5065465;28;20082;-72
2023/09/17 09:40:15;;;;;;;1.60;1.15;;;45.20;17.40;;;;;;5051753;28;20028;-73
2023/09/17 09:42:42;;;;;;;0.80;0.80;;;44.90;17.20;;;;;;5049727;28;20033;-72
2023/09/17 09:45:28;;;;;;;1.17;1.08;;;45.00;17.80;;;;;;5069413;28;20029;-72
2023/09/17 09:47:54;;;;;;;4.18;1.73;;;45.60;16.30;;;;;;5065274;28;20048;-72
2023/09/17 09:50:38;;;;;;;0.90;0.90;;;45.40;16.70;;;;;;5068847;28;20044;-73
2023/09/17 09:53:05;;;;;;;0.75;0.75;;;45.40;16.70;;;;;;5056870;28;20057;-72
2023/09/17 09:55:31;;;;;;;0.82;0.82;;;45.90;16.30;;;;;;5049638;28;20041;-72
2023/09/17 09:57:57;;;;;;;1.13;1.02;;;45.10;16.60;;;;;;5051115;28;20052;-72
2023/09/17 10:00:45;;;;;;;0.98;0.80;;;43.10;17.90;;;;;;5059963;28;20127;-72
2023/09/17 10:03:13;;;;;;;1.48;1.02;;;41.90;18.50;;;;;;5066053;28;20032;-72
2023/09/17 10:05:40;;;;;;;0.82;0.80;;;41.40;19.70;;;;;;5069724;28;20069;-72
2023/09/17 10:08:26;;;;;;;1.27;1.00;;;40.60;20.40;;;;;;5073216;28;20123;-72
2023/09/17 10:10:54;;;;;;;0.68;0.68;;;39.40;21.10;;;;;;5072944;28;20048;-72
2023/09/17 10:13:20;;;;;;;0.88;0.88;;;38.70;22.40;;;;;;5075233;28;20500;-72
2023/09/17 10:15:47;;;;;;;0.82;0.70;;;38.40;23.00;;;;;;5074681;28;20075;-72
2023/09/17 10:18:14;;;;;;;0.70;0.60;;;37.80;23.20;;;;;;5074626;28;20028;-72
2023/09/17 10:20:44;;;;;;;1.42;1.08;;;37.60;23.80;;;;;;5072340;28;20056;-72
2023/09/17 10:23:12;;;;;;;1.35;0.98;;;38.20;23.30;;;;;;5074497;28;20036;-72
2023/09/17 10:25:41;;;;;;;0.50;0.50;;;39.30;22.60;;;;;;5073061;28;20036;-72
2023/09/17 10:28:10;;;;;;;0.95;0.75;;;40.60;20.90;;;;;;5073224;28;20473;-72
2023/09/17 10:30:38;;;;;;;0.60;0.60;;;40.60;21.00;;;;;;5072142;28;20037;-73
2023/09/17 10:33:07;;;;;;;0.75;0.65;;;40.00;21.70;;;;;;5070941;28;20500;-72
2023/09/17 10:35:35;;;;;;;2.17;0.80;;;39.10;22.30;;;;;;5073577;28;20094;-72
2023/09/17 10:38:05;;;;;;;0.75;0.73;;;38.20;23.60;;;;;;5073133;28;20647;-72
2023/09/17 10:40:51;;;;;;;2.50;0.55;;;37.80;23.90;;;;;;5072017;28;20139;-73
2023/09/17 10:43:18;;;;;;;0.55;0.55;;;37.20;24.20;;;;;;5074131;28;20052;-73
2023/09/17 10:45:46;;;;;;;2.95;1.00;;;36.70;24.10;;;;;;5072482;28;20066;-72
2023/09/17 10:48:13;;;;;;;0.55;0.43;;;36.30;25.00;;;;;;5055883;28;20123;-72
2023/09/17 10:50:42;;;;;;;0.57;0.57;;;35.90;25.70;;;;;;5055161;28;20036;-72
2023/09/17 10:53:08;;;;;;;0.98;0.75;;;35.40;25.80;;;;;;5072839;28;20288;-72
2023/09/17 10:55:40;;;;;;;1.23;1.10;;;35.20;26.30;;;;;;5072506;28;20040;-72
2023/09/17 10:58:28;;;;;;;0.50;0.40;;;34.90;26.40;;;;;;5072838;28;20512;-72
2023/09/17 11:00:58;;;;;;;0.50;0.47;;;34.70;26.60;;;;;;5071411;28;20033;-72
2023/09/17 11:03:26;;;;;;;0.52;0.50;;;34.50;26.40;;;;;;5072699;28;20068;-72
2023/09/17 11:05:55;;;;;;;0.50;0.50;;;34.30;26.60;;;;;;5055486;28;20460;-72
2023/09/17 11:08:22;;;;;;;1.83;0.93;;;34.00;26.50;;;;;;5055599;28;20576;-72
2023/09/17 11:10:48;;;;;;;0.68;0.55;;;33.90;26.80;;;;;;5071271;28;20033;-72
2023/09/17 11:13:15;;;;;;;1.35;0.90;;;33.90;27.00;;;;;;5072340;28;20074;-72
2023/09/17 11:16:01;;;;;;;0.68;0.60;;;33.70;26.50;;;;;;5055053;28;20378;-72
2023/09/17 11:18:27;;;;;;;0.68;0.68;;;33.60;27.30;;;;;;5072215;28;20032;-72
2023/09/17 11:21:12;;;;;;;0.70;0.70;;;33.90;27.40;;;;;;5072462;28;20497;-72
2023/09/17 11:23:58;;;;;;;0.60;0.60;;;34.80;25.70;;;;;;5073169;28;20123;-71
2023/09/17 11:26:45;;;;;;;0.40;0.40;;;34.90;26.10;;;;;;5054680;28;20036;-72
2023/09/17 11:29:12;;;;;;;0.52;0.50;;;35.70;24.90;;;;;;5071981;28;20485;-71
2023/09/17 11:32:34;;;;;;;0.73;0.70;;;37.10;24.30;;;;;;5054251;28;20037;-72
2023/09/17 11:35:01;;;;;;;0.45;0.45;;;39.80;21.20;;;;;;5070868;28;20043;-72
2023/09/17 11:37:27;;;;;;;1.35;0.82;;;41.90;19.30;;;;;;5072676;28;20086;-72
2023/09/17 11:39:53;;;;;;;0.75;0.73;;;43.10;18.20;;;;;;5072806;28;20086;-72
2023/09/17 11:42:23;;;;;;;0.95;0.88;;;44.00;17.60;;;;;;5071768;28;20040;-72
2023/09/17 11:44:52;;;;;;;0.95;0.85;;;43.70;17.00;;;;;;5071408;28;20572;-72
2023/09/17 11:47:18;;;;;;;28.10;1.67;;;42.90;17.70;;;;;;5071272;28;20032;-73
2023/09/17 11:49:46;;;;;;;1.33;1.23;;;42.40;18.80;;;;;;5071572;28;20047;-72
2023/09/17 11:52:13;;;;;;;0.70;0.60;;;41.80;18.60;;;;;;5070461;28;20041;-72
2023/09/17 11:55:11;;;;;;;0.98;0.70;;;42.60;18.30;;;;;;5070780;28;20043;-73
2023/09/17 11:57:38;;;;;;;0.93;0.77;;;43.30;17.60;;;;;;5072297;28;20028;-73
2023/09/17 12:00:09;;;;;;;0.65;0.60;;;42.80;17.30;;;;;;5071842;28;20063;-73
2023/09/17 12:02:37;;;;;;;1.25;0.77;;;42.30;17.70;;;;;;5071615;28;20421;-72
2023/09/17 12:05:04;;;;;;;1.10;0.80;;;42.90;17.00;;;;;;5071628;28;20032;-72
2023/09/17 12:07:33;;;;;;;1.08;1.00;;;43.50;17.00;;;;;;5084055;28;20044;-72
2023/09/17 12:10:07;;;;;;;0.60;0.60;;;43.10;17.00;;;;;;5075909;28;20344;-72
2023/09/17 12:12:36;;;;;;;0.80;0.80;;;42.30;17.50;;;;;;5071175;28;20036;-72
2023/09/17 12:15:06;;;;;;;0.65;0.65;;;42.00;18.80;;;;;;5070938;28;20449;-72
2023/09/17 12:17:36;;;;;;;0.50;0.50;;;41.00;19.20;;;;;;5071289;28;20028;-73
2023/09/17 12:20:12;;;;;;;0.70;0.70;;;40.40;19.50;;;;;;5054783;28;20048;-72
2023/09/17 12:22:39;;;;;;;2.45;1.17;;;41.00;19.50;;;;;;5070911;28;20075;-72
2023/09/17 12:25:13;;;;;;;1.33;0.80;;;42.20;19.20;;;;;;5070344;28;20044;-72
2023/09/17 12:27:58;;;;;;;1.05;0.93;;;42.80;17.40;;;;;;5070853;28;20043;-72
2023/09/17 12:30:26;;;;;;;1.05;0.75;;;42.10;19.00;;;;;;5070723;28;20044;-72
2023/09/17 12:32:52;;;;;;;1.80;1.40;;;41.40;19.50;;;;;;5071904;28;20035;-72
2023/09/17 12:35:18;;;;;;;1.52;1.17;;;41.00;19.70;;;;;;5069996;28;20043;-73
2023/09/17 12:37:44;;;;;;;0.90;0.80;;;41.20;20.50;;;;;;5063790;28;20034;-72
2023/09/17 12:40:12;;;;;;;0.60;0.60;;;42.00;19.90;;;;;;5067758;28;20048;-73
2023/09/17 12:42:39;;;;;;;0.60;0.57;;;42.30;19.10;;;;;;5063290;28;20064;-73
2023/09/17 12:45:06;;;;;;;1.13;0.80;;;43.50;18.30;;;;;;5070226;28;20062;-72
2023/09/17 12:47:33;;;;;;;0.70;0.70;;;45.30;16.80;;;;;;5069812;28;20195;-72
2023/09/17 12:50:02;;;;;;;1.00;0.93;;;46.50;16.00;;;;;;5069789;28;20082;-73
2023/09/17 12:52:28;;;;;;;3.50;1.67;;;47.50;15.30;;;;;;5069109;28;20044;-72
2023/09/17 12:55:00;;;;;;;1.73;1.55;;;48.30;14.30;;;;;;5052788;28;20059;-72
2023/09/17 12:57:27;;;;;;;1.88;1.15;;;48.80;14.00;;;;;;5069012;28;20119;-72
2023/09/17 12:59:54;;;;;;;2.42;1.77;;;49.20;13.70;;;;;;5052248;28;20043;-72
2023/09/17 13:02:48;;;;;;;1.17;1.08;;;49.10;14.20;;;;;;5068844;28;20460;-72
2023/09/17 13:05:33;;;;;;;2.17;1.65;;;49.10;13.90;;;;;;5069572;28;20036;-72